UVL weather

El Kharga Airport
New Valley Governorate, Egypt

Public forecast

Using degrees Celsius for public forecast. Weather courtesy of forecast.io.

Closest aviation weather report (METAR) to El Kharga Airport

Closest report is Assiut International Airport, 97.1 nm (179.9 km) NNE. Retrieved 2020/05/26 08:00 UTC (17 minutes ago):

HEAT 260800Z 35015KT CAVOK 26/11 Q1016 NOSIG

Closest aviation forecast (TAF) to El Kharga Airport

Closest forecast is Assiut International Airport, 97.1 nm (179.9 km) NNE. Retrieved 2020/05/26 06:00 UTC (2 hours ago):

TAF HEAT 260500Z 2606/2712 34008KT CAVOK